createdAt,value
2019-06-07T00:01:26.568Z,17.07
2019-06-07T00:04:09.992Z,16.95
2019-06-07T00:06:58.614Z,15.60
2019-06-07T00:09:37.029Z,16.95
2019-06-07T00:12:14.926Z,16.02
2019-06-07T00:14:52.977Z,18.30
2019-06-07T00:17:29.253Z,19.67
2019-06-07T00:20:13.202Z,18.37
2019-06-07T00:22:49.305Z,15.25
2019-06-07T00:25:32.063Z,19.05
2019-06-07T00:28:10.582Z,17.25
2019-06-07T00:30:52.018Z,17.95
2019-06-07T00:33:27.204Z,16.82
2019-06-07T00:36:14.577Z,20.30
2019-06-07T00:38:49.286Z,18.67
2019-06-07T00:41:25.074Z,18.30
2019-06-07T00:44:03.842Z,17.07
2019-06-07T00:46:42.799Z,15.85
2019-06-07T00:49:36.180Z,16.07
2019-06-07T00:52:06.104Z,16.95
2019-06-07T00:54:42.610Z,15.43
2019-06-07T00:57:24.502Z,16.48
2019-06-07T01:00:01.530Z,17.55
2019-06-07T01:02:43.327Z,15.85
2019-06-07T01:05:31.021Z,15.80
2019-06-07T01:08:05.268Z,12.55
2019-06-07T01:10:53.625Z,12.85
2019-06-07T01:13:26.922Z,11.68
2019-06-07T01:16:11.417Z,16.23
2019-06-07T01:18:51.370Z,22.42
2019-06-07T01:21:29.714Z,17.70
2019-06-07T01:24:12.300Z,15.08
2019-06-07T01:26:49.220Z,17.25
2019-06-07T01:29:30.882Z,12.70
2019-06-07T01:32:13.241Z,14.43
2019-06-07T01:34:50.311Z,14.60
2019-06-07T01:37:30.087Z,12.23
2019-06-07T01:40:07.545Z,13.68
2019-06-07T01:42:48.912Z,10.72
2019-06-07T01:45:34.341Z,13.65
2019-06-07T01:48:12.530Z,12.20
2019-06-07T01:51:06.078Z,13.60
2019-06-07T01:53:49.304Z,14.87
2019-06-07T01:56:29.814Z,13.32
2019-06-07T01:59:13.743Z,10.88
2019-06-07T02:01:52.272Z,13.03
2019-06-07T02:04:33.036Z,16.85
2019-06-07T02:07:10.787Z,16.40
2019-06-07T02:09:57.936Z,13.93
2019-06-07T02:12:43.370Z,13.78
2019-06-07T02:15:16.948Z,15.32
2019-06-07T02:17:55.768Z,13.30
2019-06-07T02:20:34.424Z,10.38
2019-06-07T02:23:11.109Z,14.73
2019-06-07T02:25:50.939Z,14.53
2019-06-07T02:28:42.268Z,11.57
2019-06-07T02:31:08.178Z,12.75
2019-06-07T02:33:48.613Z,11.65
2019-06-07T02:36:40.962Z,20.32
2019-06-07T02:39:15.967Z,15.55
2019-06-07T02:41:53.788Z,14.90
2019-06-07T02:44:39.604Z,13.62
2019-06-07T02:47:19.206Z,14.85
2019-06-07T02:49:56.166Z,16.85
2019-06-07T02:52:44.053Z,12.93
2019-06-07T02:55:27.350Z,14.40
2019-06-07T02:58:08.352Z,14.93
2019-06-07T03:01:06.667Z,48.08
2019-06-07T03:03:28.882Z,97.33
2019-06-07T03:06:07.727Z,24.37
2019-06-07T03:08:46.759Z,28.92
2019-06-07T03:11:24.277Z,62.80
2019-06-07T03:14:07.432Z,21.68
2019-06-07T03:16:54.338Z,19.52
2019-06-07T03:19:44.656Z,27.80
2019-06-07T03:22:21.969Z,37.58
2019-06-07T03:25:15.985Z,27.40
2019-06-07T03:27:52.707Z,37.45
2019-06-07T03:30:57.192Z,166.85
2019-06-07T03:33:18.474Z,131.47
2019-06-07T03:35:56.979Z,169.02
2019-06-07T03:38:34.848Z,33.05
2019-06-07T03:41:11.446Z,48.63
2019-06-07T03:43:56.094Z,41.50
2019-06-07T03:49:28.032Z,20.57
2019-06-07T03:52:08.661Z,23.40
2019-06-07T03:54:46.228Z,17.35
2019-06-07T03:58:29.240Z,14.70
2019-06-07T04:00:18.841Z,15.43
2019-06-07T04:03:00.181Z,15.35
2019-06-07T04:05:38.862Z,17.40
2019-06-07T04:08:33.682Z,13.90
2019-06-07T04:11:09.705Z,17.52
2019-06-07T04:13:49.137Z,13.30
2019-06-07T04:16:25.855Z,16.02
2019-06-07T04:19:03.655Z,16.45
2019-06-07T04:21:45.505Z,17.15
2019-06-07T04:24:20.895Z,23.40
2019-06-07T04:27:01.193Z,18.73
2019-06-07T04:30:03.030Z,17.17
2019-06-07T04:32:26.219Z,15.68
2019-06-07T04:35:11.547Z,17.98
2019-06-07T04:37:52.197Z,13.98
2019-06-07T04:40:34.348Z,17.10
2019-06-07T04:43:16.894Z,15.70
2019-06-07T04:45:54.007Z,18.82
2019-06-07T04:48:33.290Z,17.90
2019-06-07T04:51:10.222Z,16.25
2019-06-07T04:53:53.357Z,20.85
2019-06-07T04:56:32.852Z,18.57
2019-06-07T04:59:09.861Z,16.57
2019-06-07T05:01:50.929Z,17.60
2019-06-07T05:04:34.956Z,17.87
2019-06-07T05:07:16.910Z,17.50
2019-06-07T05:09:54.084Z,14.80
2019-06-07T05:12:32.709Z,16.57
2019-06-07T05:15:12.166Z,15.48
2019-06-07T05:17:50.443Z,15.30
2019-06-07T05:20:27.195Z,14.78
2019-06-07T05:23:59.540Z,15.63
2019-06-07T05:25:54.375Z,16.50
2019-06-07T05:28:32.575Z,14.25
2019-06-07T05:31:13.634Z,16.85
2019-06-07T05:34:08.483Z,19.27
2019-06-07T05:37:10.351Z,16.85
2019-06-07T05:39:32.073Z,17.55
2019-06-07T05:42:13.986Z,21.42
2019-06-07T05:44:57.619Z,14.98
2019-06-07T05:47:40.897Z,15.32
2019-06-07T05:50:38.330Z,15.03
2019-06-07T05:53:09.802Z,19.02
2019-06-07T05:55:50.647Z,18.05
2019-06-07T05:58:29.187Z,21.37
2019-06-07T06:01:41.512Z,17.07
2019-06-07T06:03:47.998Z,23.65
2019-06-07T06:06:30.152Z,17.57
2019-06-07T06:09:15.140Z,23.95
2019-06-07T06:12:02.404Z,16.40
2019-06-07T06:14:42.823Z,17.98
2019-06-07T06:17:19.155Z,21.17
2019-06-07T06:22:56.997Z,19.23
2019-06-07T06:25:37.552Z,22.85
2019-06-07T06:28:16.234Z,18.50
2019-06-07T06:31:04.620Z,22.42
2019-06-07T06:33:42.894Z,20.43
2019-06-07T06:36:18.708Z,21.85
2019-06-07T06:38:59.143Z,22.40
2019-06-07T06:41:52.271Z,22.30
2019-06-07T06:44:34.001Z,22.67
2019-06-07T06:47:11.318Z,23.15
2019-06-07T06:49:54.667Z,28.25
2019-06-07T06:52:35.402Z,23.18
2019-06-07T06:55:21.722Z,26.40
2019-06-07T06:58:02.320Z,25.95
2019-06-07T07:04:06.932Z,24.63
2019-06-07T07:06:29.244Z,21.25
2019-06-07T07:09:16.394Z,25.88
2019-06-07T07:12:10.207Z,26.02
2019-06-07T07:14:32.752Z,24.90
2019-06-07T07:20:05.665Z,29.70
2019-06-07T07:22:46.326Z,26.73
2019-06-07T07:25:25.123Z,25.90
2019-06-07T07:28:04.853Z,25.27
2019-06-07T07:30:58.228Z,32.25
2019-06-07T07:48:17.747Z,26.93
2019-06-07T07:53:52.039Z,24.07
2019-06-07T07:56:23.218Z,33.60
2019-06-07T07:59:11.095Z,33.18
2019-06-07T08:01:55.992Z,29.07
2019-06-07T08:05:20.544Z,31.68
2019-06-07T08:07:33.550Z,26.35
2019-06-07T08:10:21.127Z,29.20
2019-06-07T08:13:24.892Z,33.80
2019-06-07T08:15:48.294Z,29.65
2019-06-07T08:21:38.860Z,32.38
2019-06-07T08:24:24.799Z,34.10
2019-06-07T08:27:25.336Z,30.23
2019-06-07T08:29:47.657Z,31.82
2019-06-07T08:32:40.403Z,52.35
2019-06-07T08:36:02.880Z,43.50
2019-06-07T08:38:22.029Z,47.67
2019-06-07T08:40:39.383Z,45.85
2019-06-07T08:43:21.800Z,64.65
2019-06-07T08:46:07.088Z,34.65
2019-06-07T08:48:45.749Z,34.92
2019-06-07T08:51:25.746Z,30.12
2019-06-07T08:54:21.653Z,32.33
2019-06-07T08:59:35.919Z,31.25
2019-06-07T09:02:23.814Z,39.25
2019-06-07T09:05:12.067Z,33.55
2019-06-07T09:07:44.481Z,28.77
2019-06-07T09:10:20.585Z,24.95
2019-06-07T09:13:00.313Z,32.15
2019-06-07T09:15:39.052Z,31.97
2019-06-07T09:18:40.713Z,33.15
2019-06-07T09:20:55.664Z,37.95
2019-06-07T09:26:32.920Z,32.25
2019-06-07T09:29:12.058Z,37.17
2019-06-07T09:31:53.415Z,60.50
2019-06-07T09:34:36.943Z,72.55
2019-06-07T09:38:03.044Z,45.23
2019-06-07T09:39:50.498Z,30.45
2019-06-07T09:42:28.644Z,28.12
2019-06-07T09:45:08.249Z,31.62
2019-06-07T09:47:44.482Z,36.55
2019-06-07T09:50:24.943Z,35.55
2019-06-07T09:53:16.221Z,37.75
2019-06-07T09:55:43.227Z,43.73
2019-06-07T10:01:03.951Z,40.73
2019-06-07T10:03:39.031Z,33.38
2019-06-07T10:06:19.339Z,41.48
2019-06-07T10:11:34.770Z,36.55
2019-06-07T10:14:12.018Z,31.80
2019-06-07T10:19:41.123Z,46.13
2019-06-07T10:24:59.683Z,50.28
2019-06-07T10:27:36.578Z,66.92
2019-06-07T10:30:17.140Z,45.58
2019-06-07T10:32:55.122Z,40.15
2019-06-07T10:35:31.925Z,37.10
2019-06-07T10:38:10.644Z,64.12
2019-06-07T10:40:47.589Z,64.10
2019-06-07T10:43:28.108Z,56.73
2019-06-07T10:46:05.709Z,75.50
2019-06-07T10:48:42.464Z,71.33
2019-06-07T10:51:19.773Z,63.05
2019-06-07T10:53:59.584Z,41.13
2019-06-07T10:56:37.563Z,55.70
2019-06-07T11:02:33.061Z,34.58
2019-06-07T11:05:12.276Z,31.12
2019-06-07T11:08:00.285Z,30.65
2019-06-07T11:10:33.506Z,31.42
2019-06-07T11:13:14.464Z,43.58
2019-06-07T11:15:50.595Z,38.30
2019-06-07T11:18:28.963Z,26.75
2019-06-07T11:21:06.367Z,27.85
2019-06-07T11:23:54.956Z,33.00
2019-06-07T11:26:30.635Z,33.73
2019-06-07T11:29:10.902Z,34.17
2019-06-07T11:31:48.292Z,28.50
2019-06-07T11:37:01.689Z,35.78
2019-06-07T11:39:42.832Z,26.00
2019-06-07T11:42:20.292Z,39.33
2019-06-07T11:45:05.796Z,29.82
2019-06-07T11:47:48.430Z,26.80
2019-06-07T11:50:24.107Z,31.40
2019-06-07T11:53:01.538Z,30.27
2019-06-07T11:55:37.454Z,27.55
2019-06-07T11:58:19.739Z,34.63
2019-06-07T12:00:54.553Z,26.42
2019-06-07T12:03:36.666Z,30.30
2019-06-07T12:06:14.507Z,32.63
2019-06-07T12:08:51.619Z,31.80
2019-06-07T12:11:45.462Z,35.88
2019-06-07T12:14:22.010Z,33.80
2019-06-07T12:16:59.675Z,36.65
2019-06-07T12:19:36.808Z,31.37
2019-06-07T12:22:18.152Z,33.35
2019-06-07T12:24:55.012Z,36.33
2019-06-07T12:27:38.018Z,34.27
2019-06-07T12:30:24.475Z,35.73
2019-06-07T12:33:00.213Z,41.88
2019-06-07T12:35:41.960Z,32.85
2019-06-07T12:38:19.395Z,44.03
2019-06-07T12:40:57.861Z,43.63
2019-06-07T12:43:37.129Z,47.93
2019-06-07T12:46:15.378Z,43.10
2019-06-07T12:48:53.157Z,47.60
2019-06-07T12:51:33.444Z,44.25
2019-06-07T12:54:15.425Z,46.73
2019-06-07T12:56:52.409Z,40.38
2019-06-07T12:59:29.999Z,43.90
2019-06-07T13:02:09.993Z,43.98
2019-06-07T13:04:49.846Z,52.13
2019-06-07T13:07:27.879Z,48.65
2019-06-07T13:10:05.174Z,49.15
2019-06-07T13:12:51.305Z,44.38
2019-06-07T13:18:08.786Z,37.60
2019-06-07T13:20:48.792Z,49.10
2019-06-07T13:23:26.404Z,51.28
2019-06-07T13:26:06.408Z,45.45
2019-06-07T13:31:38.598Z,38.28
2019-06-07T13:34:18.544Z,39.90
2019-06-07T13:36:58.361Z,38.17
2019-06-07T13:39:39.988Z,36.93
2019-06-07T13:42:16.659Z,39.03
2019-06-07T13:48:03.256Z,37.88
2019-06-07T13:50:44.118Z,40.78
2019-06-07T13:53:25.504Z,39.03
2019-06-07T13:56:11.013Z,37.28
2019-06-07T13:58:53.462Z,31.52
2019-06-07T14:01:33.599Z,35.95
2019-06-07T14:04:09.797Z,34.30
2019-06-07T14:09:49.425Z,35.92
2019-06-07T14:12:27.732Z,30.37
2019-06-07T14:15:09.405Z,39.55
2019-06-07T14:20:49.384Z,32.90
2019-06-07T14:23:44.222Z,33.28
2019-06-07T14:26:21.245Z,34.05
2019-06-07T14:29:00.747Z,36.35
2019-06-07T14:31:41.456Z,36.65
2019-06-07T14:34:26.316Z,39.58
2019-06-07T14:37:04.067Z,34.60
2019-06-07T14:39:51.436Z,35.20
2019-06-07T14:42:42.545Z,48.95
2019-06-07T14:48:30.369Z,39.83
2019-06-07T14:54:15.878Z,42.60
2019-06-07T15:02:51.551Z,41.70
2019-06-07T15:05:46.663Z,44.20
2019-06-07T15:08:26.464Z,43.20
2019-06-07T15:11:22.265Z,42.30
2019-06-07T15:17:09.078Z,38.48
2019-06-07T15:19:47.789Z,37.33
2019-06-07T15:22:25.794Z,34.88
2019-06-07T15:25:05.491Z,33.42
2019-06-07T15:28:01.434Z,35.13
2019-06-07T15:30:46.654Z,38.83
2019-06-07T15:33:23.794Z,37.05
2019-06-07T15:36:02.172Z,45.50
2019-06-07T15:38:44.283Z,38.02
2019-06-07T15:41:30.972Z,39.38
2019-06-07T15:44:09.130Z,41.33
2019-06-07T15:46:51.157Z,42.13
2019-06-07T15:49:40.419Z,40.15
2019-06-07T15:52:24.903Z,46.50
2019-06-07T15:55:07.295Z,41.65
2019-06-07T15:57:49.017Z,46.25
2019-06-07T16:00:29.021Z,44.65
2019-06-07T16:06:12.905Z,45.25
2019-06-07T16:11:47.127Z,49.08
2019-06-07T16:14:26.527Z,43.42
2019-06-07T16:20:03.913Z,47.30
2019-06-07T16:22:43.807Z,52.15
2019-06-07T16:25:29.446Z,51.92
2019-06-07T16:28:22.479Z,47.20
2019-06-07T16:33:52.521Z,46.75
2019-06-07T16:36:46.958Z,48.50
2019-06-07T16:39:40.166Z,48.78
2019-06-07T16:45:19.090Z,52.50
2019-06-07T16:48:13.376Z,52.17
2019-06-07T16:53:47.082Z,54.15
2019-06-07T16:56:27.748Z,50.10
2019-06-07T16:59:20.500Z,46.80
2019-06-07T17:01:56.469Z,48.23
2019-06-07T17:04:32.314Z,46.23
2019-06-07T17:07:11.378Z,49.15
2019-06-07T17:09:50.712Z,53.40
2019-06-07T17:12:27.620Z,41.23
2019-06-07T17:15:09.503Z,46.05
2019-06-07T17:17:49.131Z,44.13
2019-06-07T17:20:45.506Z,43.23
2019-06-07T17:23:22.481Z,48.52
2019-06-07T17:25:59.400Z,43.90
2019-06-07T17:28:44.551Z,44.93
2019-06-07T17:34:17.682Z,42.98
2019-06-07T17:36:52.830Z,48.05
2019-06-07T17:39:32.988Z,43.23
2019-06-07T17:42:25.940Z,45.83
2019-06-07T17:45:03.020Z,42.80
2019-06-07T17:47:43.549Z,43.60
2019-06-07T17:50:21.705Z,42.85
2019-06-07T17:53:02.258Z,46.50
2019-06-07T17:55:44.206Z,47.48
2019-06-07T17:58:23.927Z,44.63
2019-06-07T18:01:00.641Z,48.52
2019-06-07T18:03:40.912Z,44.70
2019-06-07T18:06:21.114Z,39.08
2019-06-07T18:08:59.088Z,46.25
2019-06-07T18:11:36.529Z,43.50
2019-06-07T18:16:55.309Z,45.85
2019-06-07T18:19:35.180Z,42.30
2019-06-07T18:22:14.401Z,45.00
2019-06-07T18:24:52.831Z,48.08
2019-06-07T18:27:27.763Z,43.45
2019-06-07T18:30:11.319Z,41.48
2019-06-07T18:32:46.866Z,42.27
2019-06-07T18:35:25.643Z,43.10
2019-06-07T18:38:03.528Z,45.63
2019-06-07T18:40:39.322Z,44.93
2019-06-07T18:43:19.568Z,45.27
2019-06-07T18:45:57.617Z,46.60
2019-06-07T18:48:37.456Z,47.05
2019-06-07T18:51:16.876Z,42.10
2019-06-07T18:53:55.692Z,45.10
2019-06-07T18:56:39.387Z,47.03
2019-06-07T18:59:19.339Z,51.90
2019-06-07T19:01:55.533Z,46.63
2019-06-07T19:04:32.189Z,41.55
2019-06-07T19:07:09.637Z,43.13
2019-06-07T19:09:47.070Z,44.58
2019-06-07T19:12:27.050Z,43.75
2019-06-07T19:15:04.357Z,41.92
2019-06-07T19:17:40.379Z,47.53
2019-06-07T19:20:18.718Z,43.33
2019-06-07T19:22:54.721Z,48.68
2019-06-07T19:25:30.551Z,44.00
2019-06-07T19:28:06.704Z,46.77
2019-06-07T19:30:42.359Z,46.73
2019-06-07T19:33:21.651Z,47.20
2019-06-07T19:35:57.456Z,50.90
2019-06-07T19:38:34.002Z,56.25
2019-06-07T19:41:19.142Z,52.67
2019-06-07T19:46:20.355Z,58.92
2019-06-07T19:48:56.525Z,56.33
2019-06-07T19:51:32.221Z,67.47
2019-06-07T19:54:07.978Z,67.50
2019-06-07T19:56:43.917Z,81.12
2019-06-07T19:59:19.730Z,84.77
2019-06-07T20:01:57.902Z,75.67
2019-06-07T20:04:33.900Z,64.95
2019-06-07T20:07:09.572Z,69.75
2019-06-07T20:09:45.726Z,75.15
2019-06-07T20:12:21.286Z,79.75
2019-06-07T20:15:21.002Z,75.05
2019-06-07T20:17:33.895Z,73.97
2019-06-07T20:20:10.645Z,91.47
2019-06-07T20:25:22.238Z,85.45
2019-06-07T20:27:59.465Z,74.22
2019-06-07T20:30:36.263Z,77.62
2019-06-07T20:33:13.811Z,77.20
2019-06-07T20:35:49.446Z,93.15
2019-06-07T20:38:25.164Z,96.10
2019-06-07T20:41:01.431Z,119.77
2019-06-07T20:43:37.407Z,118.20
2019-06-07T20:46:13.008Z,132.83
2019-06-07T20:48:48.872Z,100.90
2019-06-07T20:51:24.906Z,94.75
2019-06-07T20:54:00.762Z,91.15
2019-06-07T20:56:36.386Z,87.70
2019-06-07T20:59:12.619Z,82.47
2019-06-07T21:01:49.536Z,85.62
2019-06-07T21:04:27.024Z,87.25
2019-06-07T21:07:05.343Z,90.45
2019-06-07T21:09:41.310Z,88.58
2019-06-07T21:12:16.946Z,89.60
2019-06-07T21:14:52.934Z,96.95
2019-06-07T21:17:29.775Z,103.77
2019-06-07T21:20:08.167Z,113.45
2019-06-07T21:22:46.164Z,108.67
2019-06-07T21:25:21.939Z,101.45
2019-06-07T21:27:59.220Z,98.50
2019-06-07T21:30:36.740Z,100.25
2019-06-07T21:33:14.254Z,112.50
2019-06-07T21:35:51.627Z,106.27
2019-06-07T21:38:28.902Z,101.62
2019-06-07T21:41:05.847Z,101.22
2019-06-07T21:46:20.564Z,110.37
2019-06-07T21:48:55.280Z,116.55
2019-06-07T21:51:32.663Z,115.05
2019-06-07T21:54:13.086Z,117.47
2019-06-07T21:56:49.000Z,109.40
2019-06-07T21:59:24.701Z,118.08
2019-06-07T22:02:00.951Z,115.65
2019-06-07T22:04:38.154Z,117.57
2019-06-07T22:07:15.286Z,118.08
2019-06-07T22:09:50.891Z,114.52
2019-06-07T22:12:26.743Z,113.57
2019-06-07T22:15:02.780Z,120.07
2019-06-07T22:17:40.681Z,116.50
2019-06-07T22:20:19.463Z,122.07
2019-06-07T22:22:55.310Z,118.10
2019-06-07T22:25:31.450Z,121.25
2019-06-07T22:28:12.836Z,128.80
2019-06-07T22:30:48.691Z,127.82
2019-06-07T22:33:26.134Z,122.42
2019-06-07T22:36:03.037Z,123.10
2019-06-07T22:38:38.977Z,124.78
2019-06-07T22:41:15.831Z,133.22
2019-06-07T22:43:53.334Z,130.80
2019-06-07T22:46:37.421Z,127.25
2019-06-07T22:49:15.737Z,128.15
2019-06-07T22:51:59.476Z,130.22
2019-06-07T22:54:31.563Z,121.67
2019-06-07T22:57:12.135Z,117.90
2019-06-07T22:59:52.355Z,128.47
2019-06-07T23:02:31.139Z,124.20
2019-06-07T23:05:08.427Z,124.62
2019-06-07T23:07:44.146Z,117.57
2019-06-07T23:10:31.718Z,118.72
2019-06-07T23:13:09.264Z,118.90
2019-06-07T23:15:44.823Z,118.55
2019-06-07T23:18:24.816Z,125.35
2019-06-07T23:21:00.761Z,123.30
2019-06-07T23:23:36.351Z,116.73
2019-06-07T23:26:14.142Z,124.60
2019-06-07T23:28:51.274Z,124.45
2019-06-07T23:31:27.534Z,122.37
2019-06-07T23:34:04.660Z,125.47
2019-06-07T23:36:40.540Z,122.37
2019-06-07T23:39:17.159Z,126.30
2019-06-07T23:44:28.335Z,120.15
2019-06-07T23:47:11.509Z,123.92
2019-06-07T23:49:41.084Z,121.37
2019-06-07T23:52:18.292Z,115.85
2019-06-07T23:54:58.443Z,107.92
2019-06-07T23:57:36.578Z,106.83
